Terminal Aerodrome Forecast
Issued by NWS

Home | Current Version | Previous Version | Text Only | Print | Product List | Glossary On
Versions: 1 2 3 4 5 6 7 8 9 10 11 12 13
000
FTUS42 KTAE 251735
TAFECP
TAF
KECP 251735Z 2518/2618 15010KT P6SM VCTS SCT030CB BKN050
     FM260900 12004KT P6SM BKN025
     FM261400 15009KT P6SM VCTS BKN020CB=

USA.gov is the U.S. government's official web portal to all federal, state and local government web resources and services.